sensor_id;sensor_type;location;lat;lon;timestamp;P1;durP1;ratioP1;P2;durP2;ratioP2
64065;SDS011;50318;54.760;9.408;2022-12-18T00:01:13;86.05;;;40.60;;
64065;SDS011;50318;54.760;9.408;2022-12-18T00:03:41;87.30;;;39.42;;
64065;SDS011;50318;54.760;9.408;2022-12-18T00:06:08;89.82;;;39.35;;
64065;SDS011;50318;54.760;9.408;2022-12-18T00:08:34;81.35;;;39.75;;
64065;SDS011;50318;54.760;9.408;2022-12-18T00:11:05;82.82;;;40.10;;
64065;SDS011;50318;54.760;9.408;2022-12-18T00:13:33;81.55;;;39.03;;
64065;SDS011;50318;54.760;9.408;2022-12-18T00:16:03;82.53;;;38.50;;
64065;SDS011;50318;54.760;9.408;2022-12-18T00:18:31;82.97;;;39.78;;
64065;SDS011;50318;54.760;9.408;2022-12-18T00:20:59;82.90;;;37.20;;
64065;SDS011;50318;54.760;9.408;2022-12-18T00:23:27;79.13;;;37.22;;
64065;SDS011;50318;54.760;9.408;2022-12-18T00:25:54;83.95;;;37.08;;
64065;SDS011;50318;54.760;9.408;2022-12-18T00:28:24;83.90;;;37.80;;
64065;SDS011;50318;54.760;9.408;2022-12-18T00:30:50;80.45;;;37.53;;
64065;SDS011;50318;54.760;9.408;2022-12-18T00:33:16;81.45;;;37.63;;
64065;SDS011;50318;54.760;9.408;2022-12-18T00:35:44;88.53;;;38.10;;
64065;SDS011;50318;54.760;9.408;2022-12-18T00:38:10;79.38;;;37.28;;
64065;SDS011;50318;54.760;9.408;2022-12-18T00:40:36;79.28;;;36.90;;
64065;SDS011;50318;54.760;9.408;2022-12-18T00:43:02;83.28;;;37.15;;
64065;SDS011;50318;54.760;9.408;2022-12-18T00:45:29;78.07;;;37.38;;
64065;SDS011;50318;54.760;9.408;2022-12-18T00:47:56;80.28;;;37.30;;
64065;SDS011;50318;54.760;9.408;2022-12-18T00:50:23;76.47;;;35.90;;
64065;SDS011;50318;54.760;9.408;2022-12-18T00:52:51;78.05;;;36.92;;
64065;SDS011;50318;54.760;9.408;2022-12-18T00:55:17;79.65;;;36.47;;
64065;SDS011;50318;54.760;9.408;2022-12-18T00:57:46;76.75;;;35.90;;
64065;SDS011;50318;54.760;9.408;2022-12-18T01:00:13;77.53;;;35.78;;
64065;SDS011;50318;54.760;9.408;2022-12-18T01:02:42;75.32;;;35.08;;
64065;SDS011;50318;54.760;9.408;2022-12-18T01:05:09;78.97;;;36.67;;
64065;SDS011;50318;54.760;9.408;2022-12-18T01:07:36;76.05;;;35.63;;
64065;SDS011;50318;54.760;9.408;2022-12-18T01:10:03;72.65;;;35.35;;
64065;SDS011;50318;54.760;9.408;2022-12-18T01:12:31;74.05;;;35.58;;
64065;SDS011;50318;54.760;9.408;2022-12-18T01:14:57;76.40;;;36.10;;
64065;SDS011;50318;54.760;9.408;2022-12-18T01:17:24;72.40;;;34.13;;
64065;SDS011;50318;54.760;9.408;2022-12-18T01:19:50;73.60;;;35.75;;
64065;SDS011;50318;54.760;9.408;2022-12-18T01:22:16;74.10;;;35.53;;
64065;SDS011;50318;54.760;9.408;2022-12-18T01:24:44;79.00;;;36.97;;
64065;SDS011;50318;54.760;9.408;2022-12-18T01:27:10;75.25;;;36.03;;
64065;SDS011;50318;54.760;9.408;2022-12-18T01:29:36;69.07;;;33.08;;
64065;SDS011;50318;54.760;9.408;2022-12-18T01:32:03;74.70;;;34.92;;
64065;SDS011;50318;54.760;9.408;2022-12-18T01:34:29;73.78;;;34.40;;
64065;SDS011;50318;54.760;9.408;2022-12-18T01:36:56;71.78;;;34.45;;
64065;SDS011;50318;54.760;9.408;2022-12-18T01:39:22;72.35;;;33.60;;
64065;SDS011;50318;54.760;9.408;2022-12-18T01:41:49;69.43;;;33.50;;
64065;SDS011;50318;54.760;9.408;2022-12-18T01:50:03;71.00;;;35.00;;
64065;SDS011;50318;54.760;9.408;2022-12-18T01:52:33;72.53;;;34.38;;
64065;SDS011;50318;54.760;9.408;2022-12-18T01:55:02;70.65;;;35.53;;
64065;SDS011;50318;54.760;9.408;2022-12-18T01:57:30;70.53;;;34.35;;
64065;SDS011;50318;54.760;9.408;2022-12-18T01:59:59;63.42;;;33.63;;
64065;SDS011;50318;54.760;9.408;2022-12-18T02:02:39;70.22;;;34.50;;
64065;SDS011;50318;54.760;9.408;2022-12-18T02:05:07;70.47;;;34.17;;
64065;SDS011;50318;54.760;9.408;2022-12-18T02:10:18;73.43;;;34.83;;
64065;SDS011;50318;54.760;9.408;2022-12-18T02:15:32;71.10;;;35.15;;
64065;SDS011;50318;54.760;9.408;2022-12-18T02:23:16;65.18;;;34.28;;
64065;SDS011;50318;54.760;9.408;2022-12-18T02:31:41;67.80;;;33.10;;
64065;SDS011;50318;54.760;9.408;2022-12-18T02:34:11;69.10;;;34.72;;
64065;SDS011;50318;54.760;9.408;2022-12-18T02:36:40;69.30;;;33.67;;
64065;SDS011;50318;54.760;9.408;2022-12-18T02:39:10;64.38;;;33.63;;
64065;SDS011;50318;54.760;9.408;2022-12-18T02:41:45;65.70;;;34.58;;
64065;SDS011;50318;54.760;9.408;2022-12-18T02:44:14;66.20;;;34.00;;
64065;SDS011;50318;54.760;9.408;2022-12-18T02:46:42;66.60;;;34.40;;
64065;SDS011;50318;54.760;9.408;2022-12-18T03:01:01;67.65;;;34.35;;
64065;SDS011;50318;54.760;9.408;2022-12-18T03:03:29;65.38;;;32.80;;
64065;SDS011;50318;54.760;9.408;2022-12-18T03:06:06;64.65;;;32.10;;
64065;SDS011;50318;54.760;9.408;2022-12-18T03:08:38;66.47;;;33.77;;
64065;SDS011;50318;54.760;9.408;2022-12-18T03:11:09;66.05;;;34.00;;
64065;SDS011;50318;54.760;9.408;2022-12-18T03:13:48;66.18;;;33.17;;
64065;SDS011;50318;54.760;9.408;2022-12-18T03:16:23;60.50;;;31.42;;
64065;SDS011;50318;54.760;9.408;2022-12-18T03:19:35;60.45;;;33.03;;
64065;SDS011;50318;54.760;9.408;2022-12-18T03:22:03;68.63;;;33.28;;
64065;SDS011;50318;54.760;9.408;2022-12-18T03:25:03;64.28;;;33.03;;
64065;SDS011;50318;54.760;9.408;2022-12-18T03:27:55;61.08;;;33.33;;
64065;SDS011;50318;54.760;9.408;2022-12-18T03:30:45;62.17;;;33.15;;
64065;SDS011;50318;54.760;9.408;2022-12-18T03:36:59;63.97;;;32.70;;
64065;SDS011;50318;54.760;9.408;2022-12-18T03:39:31;62.70;;;31.95;;
64065;SDS011;50318;54.760;9.408;2022-12-18T03:44:57;64.15;;;33.45;;
64065;SDS011;50318;54.760;9.408;2022-12-18T03:47:30;62.97;;;33.80;;
64065;SDS011;50318;54.760;9.408;2022-12-18T03:50:40;60.50;;;32.45;;
64065;SDS011;50318;54.760;9.408;2022-12-18T03:55:53;64.85;;;34.13;;
64065;SDS011;50318;54.760;9.408;2022-12-18T03:58:23;65.18;;;33.90;;
64065;SDS011;50318;54.760;9.408;2022-12-18T04:00:58;63.72;;;32.92;;
64065;SDS011;50318;54.760;9.408;2022-12-18T04:03:29;63.58;;;30.75;;
64065;SDS011;50318;54.760;9.408;2022-12-18T04:05:57;64.28;;;34.95;;
64065;SDS011;50318;54.760;9.408;2022-12-18T04:08:27;66.72;;;35.47;;
64065;SDS011;50318;54.760;9.408;2022-12-18T04:11:04;63.30;;;32.83;;
64065;SDS011;50318;54.760;9.408;2022-12-18T04:13:32;66.30;;;34.38;;
64065;SDS011;50318;54.760;9.408;2022-12-18T04:16:04;66.03;;;34.37;;
64065;SDS011;50318;54.760;9.408;2022-12-18T04:18:31;65.05;;;34.67;;
64065;SDS011;50318;54.760;9.408;2022-12-18T04:20:59;66.18;;;34.25;;
64065;SDS011;50318;54.760;9.408;2022-12-18T04:23:26;66.40;;;34.72;;
64065;SDS011;50318;54.760;9.408;2022-12-18T04:25:56;67.78;;;34.45;;
64065;SDS011;50318;54.760;9.408;2022-12-18T04:28:36;65.45;;;34.08;;
64065;SDS011;50318;54.760;9.408;2022-12-18T04:31:02;66.68;;;35.13;;
64065;SDS011;50318;54.760;9.408;2022-12-18T04:33:28;63.53;;;34.70;;
64065;SDS011;50318;54.760;9.408;2022-12-18T04:35:55;66.22;;;34.08;;
64065;SDS011;50318;54.760;9.408;2022-12-18T04:38:22;64.35;;;33.55;;
64065;SDS011;50318;54.760;9.408;2022-12-18T04:40:54;67.93;;;35.45;;
64065;SDS011;50318;54.760;9.408;2022-12-18T04:43:25;63.65;;;33.80;;
64065;SDS011;50318;54.760;9.408;2022-12-18T04:45:54;65.97;;;33.95;;
64065;SDS011;50318;54.760;9.408;2022-12-18T04:48:27;64.97;;;34.75;;
64065;SDS011;50318;54.760;9.408;2022-12-18T04:50:53;66.88;;;33.33;;
64065;SDS011;50318;54.760;9.408;2022-12-18T04:53:19;65.22;;;34.92;;
64065;SDS011;50318;54.760;9.408;2022-12-18T04:55:46;67.40;;;36.20;;
64065;SDS011;50318;54.760;9.408;2022-12-18T04:58:12;69.03;;;34.42;;
64065;SDS011;50318;54.760;9.408;2022-12-18T05:00:38;65.22;;;34.35;;
64065;SDS011;50318;54.760;9.408;2022-12-18T05:03:04;66.60;;;34.92;;
64065;SDS011;50318;54.760;9.408;2022-12-18T05:05:30;71.32;;;35.95;;
64065;SDS011;50318;54.760;9.408;2022-12-18T05:07:56;67.85;;;35.22;;
64065;SDS011;50318;54.760;9.408;2022-12-18T05:10:23;67.15;;;34.95;;
64065;SDS011;50318;54.760;9.408;2022-12-18T05:12:49;68.18;;;35.42;;
64065;SDS011;50318;54.760;9.408;2022-12-18T05:15:15;67.63;;;35.75;;
64065;SDS011;50318;54.760;9.408;2022-12-18T05:17:42;64.05;;;35.50;;
64065;SDS011;50318;54.760;9.408;2022-12-18T05:20:09;68.28;;;33.17;;
64065;SDS011;50318;54.760;9.408;2022-12-18T05:22:37;70.18;;;35.38;;
64065;SDS011;50318;54.760;9.408;2022-12-18T05:25:04;66.78;;;34.75;;
64065;SDS011;50318;54.760;9.408;2022-12-18T05:27:30;68.13;;;34.85;;
64065;SDS011;50318;54.760;9.408;2022-12-18T05:29:56;70.80;;;35.05;;
64065;SDS011;50318;54.760;9.408;2022-12-18T05:32:22;71.82;;;35.17;;
64065;SDS011;50318;54.760;9.408;2022-12-18T05:34:48;66.20;;;35.45;;
64065;SDS011;50318;54.760;9.408;2022-12-18T05:37:15;67.72;;;35.35;;
64065;SDS011;50318;54.760;9.408;2022-12-18T05:39:42;65.55;;;34.35;;
64065;SDS011;50318;54.760;9.408;2022-12-18T05:42:08;64.68;;;35.25;;
64065;SDS011;50318;54.760;9.408;2022-12-18T05:44:34;71.70;;;35.67;;
64065;SDS011;50318;54.760;9.408;2022-12-18T05:47:00;65.60;;;33.78;;
64065;SDS011;50318;54.760;9.408;2022-12-18T05:49:27;69.82;;;34.78;;
64065;SDS011;50318;54.760;9.408;2022-12-18T05:51:53;68.28;;;34.67;;
64065;SDS011;50318;54.760;9.408;2022-12-18T05:54:19;71.35;;;34.80;;
64065;SDS011;50318;54.760;9.408;2022-12-18T05:56:45;74.50;;;36.95;;
64065;SDS011;50318;54.760;9.408;2022-12-18T05:59:11;71.38;;;36.53;;
64065;SDS011;50318;54.760;9.408;2022-12-18T06:01:38;71.07;;;35.65;;
64065;SDS011;50318;54.760;9.408;2022-12-18T06:04:04;68.22;;;35.95;;
64065;SDS011;50318;54.760;9.408;2022-12-18T06:06:30;65.63;;;34.97;;
64065;SDS011;50318;54.760;9.408;2022-12-18T06:08:56;71.80;;;36.25;;
64065;SDS011;50318;54.760;9.408;2022-12-18T06:11:24;66.78;;;35.28;;
64065;SDS011;50318;54.760;9.408;2022-12-18T06:13:52;73.28;;;36.33;;
64065;SDS011;50318;54.760;9.408;2022-12-18T06:16:20;67.35;;;34.63;;
64065;SDS011;50318;54.760;9.408;2022-12-18T06:18:46;71.55;;;35.90;;
64065;SDS011;50318;54.760;9.408;2022-12-18T06:21:12;65.90;;;34.58;;
64065;SDS011;50318;54.760;9.408;2022-12-18T06:23:39;70.15;;;34.40;;
64065;SDS011;50318;54.760;9.408;2022-12-18T06:26:07;73.53;;;32.63;;
64065;SDS011;50318;54.760;9.408;2022-12-18T06:28:35;66.65;;;32.05;;
64065;SDS011;50318;54.760;9.408;2022-12-18T06:31:02;70.05;;;33.83;;
64065;SDS011;50318;54.760;9.408;2022-12-18T06:33:29;69.15;;;31.85;;
64065;SDS011;50318;54.760;9.408;2022-12-18T06:36:03;68.30;;;34.53;;
64065;SDS011;50318;54.760;9.408;2022-12-18T06:38:31;71.22;;;36.55;;
64065;SDS011;50318;54.760;9.408;2022-12-18T06:40:59;73.35;;;36.70;;
64065;SDS011;50318;54.760;9.408;2022-12-18T06:43:25;76.03;;;37.17;;
64065;SDS011;50318;54.760;9.408;2022-12-18T06:45:57;67.65;;;35.35;;
64065;SDS011;50318;54.760;9.408;2022-12-18T06:48:24;52.55;;;27.67;;
64065;SDS011;50318;54.760;9.408;2022-12-18T06:50:50;75.32;;;31.65;;
64065;SDS011;50318;54.760;9.408;2022-12-18T06:53:16;70.20;;;35.63;;
64065;SDS011;50318;54.760;9.408;2022-12-18T06:55:43;72.50;;;36.33;;
64065;SDS011;50318;54.760;9.408;2022-12-18T06:58:09;70.97;;;35.53;;
64065;SDS011;50318;54.760;9.408;2022-12-18T07:00:35;75.45;;;36.75;;
64065;SDS011;50318;54.760;9.408;2022-12-18T07:03:01;70.30;;;34.42;;
64065;SDS011;50318;54.760;9.408;2022-12-18T07:05:28;72.10;;;37.05;;
64065;SDS011;50318;54.760;9.408;2022-12-18T07:07:54;69.47;;;36.63;;
64065;SDS011;50318;54.760;9.408;2022-12-18T07:10:20;68.53;;;33.70;;
64065;SDS011;50318;54.760;9.408;2022-12-18T07:12:46;71.93;;;36.53;;
64065;SDS011;50318;54.760;9.408;2022-12-18T07:15:12;72.03;;;36.58;;
64065;SDS011;50318;54.760;9.408;2022-12-18T07:17:39;67.15;;;35.92;;
64065;SDS011;50318;54.760;9.408;2022-12-18T07:20:05;65.78;;;33.33;;
64065;SDS011;50318;54.760;9.408;2022-12-18T07:22:32;69.40;;;35.30;;
64065;SDS011;50318;54.760;9.408;2022-12-18T07:24:58;60.53;;;34.90;;
64065;SDS011;50318;54.760;9.408;2022-12-18T07:27:24;63.65;;;35.10;;
64065;SDS011;50318;54.760;9.408;2022-12-18T07:29:50;62.63;;;33.95;;
64065;SDS011;50318;54.760;9.408;2022-12-18T07:32:16;64.68;;;34.08;;
64065;SDS011;50318;54.760;9.408;2022-12-18T07:34:42;60.38;;;34.13;;
64065;SDS011;50318;54.760;9.408;2022-12-18T07:37:09;63.15;;;33.95;;
64065;SDS011;50318;54.760;9.408;2022-12-18T07:39:35;64.50;;;33.75;;
64065;SDS011;50318;54.760;9.408;2022-12-18T07:42:01;62.92;;;33.58;;
64065;SDS011;50318;54.760;9.408;2022-12-18T07:44:27;57.83;;;32.92;;
64065;SDS011;50318;54.760;9.408;2022-12-18T07:46:54;60.28;;;33.92;;
64065;SDS011;50318;54.760;9.408;2022-12-18T07:49:20;59.92;;;34.17;;
64065;SDS011;50318;54.760;9.408;2022-12-18T07:51:46;56.78;;;33.05;;
64065;SDS011;50318;54.760;9.408;2022-12-18T07:54:12;54.20;;;32.03;;
64065;SDS011;50318;54.760;9.408;2022-12-18T07:56:38;60.75;;;32.75;;
64065;SDS011;50318;54.760;9.408;2022-12-18T07:59:04;59.10;;;33.20;;
64065;SDS011;50318;54.760;9.408;2022-12-18T08:01:30;62.05;;;34.65;;
64065;SDS011;50318;54.760;9.408;2022-12-18T08:03:57;57.38;;;33.28;;
64065;SDS011;50318;54.760;9.408;2022-12-18T08:06:23;60.28;;;33.28;;
64065;SDS011;50318;54.760;9.408;2022-12-18T08:08:53;58.55;;;32.92;;
64065;SDS011;50318;54.760;9.408;2022-12-18T08:11:20;59.30;;;34.13;;
64065;SDS011;50318;54.760;9.408;2022-12-18T08:13:47;57.42;;;33.33;;
64065;SDS011;50318;54.760;9.408;2022-12-18T08:16:14;56.63;;;32.03;;
64065;SDS011;50318;54.760;9.408;2022-12-18T08:18:40;58.13;;;33.72;;
64065;SDS011;50318;54.760;9.408;2022-12-18T08:21:07;54.45;;;33.13;;
64065;SDS011;50318;54.760;9.408;2022-12-18T08:23:37;58.65;;;33.30;;
64065;SDS011;50318;54.760;9.408;2022-12-18T08:26:03;56.40;;;32.58;;
64065;SDS011;50318;54.760;9.408;2022-12-18T08:28:30;61.10;;;33.35;;
64065;SDS011;50318;54.760;9.408;2022-12-18T08:30:56;53.03;;;32.30;;
64065;SDS011;50318;54.760;9.408;2022-12-18T08:33:22;56.80;;;32.85;;
64065;SDS011;50318;54.760;9.408;2022-12-18T08:35:48;61.00;;;33.72;;
64065;SDS011;50318;54.760;9.408;2022-12-18T08:38:14;53.58;;;31.83;;
64065;SDS011;50318;54.760;9.408;2022-12-18T08:40:41;55.95;;;32.55;;
64065;SDS011;50318;54.760;9.408;2022-12-18T08:43:07;57.28;;;32.70;;
64065;SDS011;50318;54.760;9.408;2022-12-18T08:45:36;53.42;;;32.65;;
64065;SDS011;50318;54.760;9.408;2022-12-18T08:48:02;54.45;;;32.78;;
64065;SDS011;50318;54.760;9.408;2022-12-18T08:50:28;56.47;;;33.13;;
64065;SDS011;50318;54.760;9.408;2022-12-18T08:52:54;55.45;;;31.90;;
64065;SDS011;50318;54.760;9.408;2022-12-18T08:55:20;49.25;;;30.00;;
64065;SDS011;50318;54.760;9.408;2022-12-18T08:57:50;49.83;;;30.80;;
64065;SDS011;50318;54.760;9.408;2022-12-18T09:00:16;50.22;;;30.35;;
64065;SDS011;50318;54.760;9.408;2022-12-18T09:02:42;48.95;;;30.05;;
64065;SDS011;50318;54.760;9.408;2022-12-18T09:05:08;50.85;;;31.33;;
64065;SDS011;50318;54.760;9.408;2022-12-18T09:07:34;49.05;;;30.58;;
64065;SDS011;50318;54.760;9.408;2022-12-18T09:10:01;45.17;;;29.05;;
64065;SDS011;50318;54.760;9.408;2022-12-18T09:12:27;46.70;;;29.75;;
64065;SDS011;50318;54.760;9.408;2022-12-18T09:14:53;50.90;;;30.42;;
64065;SDS011;50318;54.760;9.408;2022-12-18T09:17:19;45.38;;;29.95;;
64065;SDS011;50318;54.760;9.408;2022-12-18T09:19:45;44.33;;;28.75;;
64065;SDS011;50318;54.760;9.408;2022-12-18T09:22:12;46.88;;;28.63;;
64065;SDS011;50318;54.760;9.408;2022-12-18T09:24:38;44.53;;;28.60;;
64065;SDS011;50318;54.760;9.408;2022-12-18T09:27:04;47.72;;;28.42;;
64065;SDS011;50318;54.760;9.408;2022-12-18T09:29:30;44.67;;;28.15;;
64065;SDS011;50318;54.760;9.408;2022-12-18T09:31:57;49.20;;;27.73;;
64065;SDS011;50318;54.760;9.408;2022-12-18T09:34:24;42.30;;;27.02;;
64065;SDS011;50318;54.760;9.408;2022-12-18T09:36:50;38.75;;;25.55;;
64065;SDS011;50318;54.760;9.408;2022-12-18T09:39:16;37.78;;;25.65;;
64065;SDS011;50318;54.760;9.408;2022-12-18T09:44:15;40.40;;;23.98;;
64065;SDS011;50318;54.760;9.408;2022-12-18T09:46:44;34.17;;;23.38;;
64065;SDS011;50318;54.760;9.408;2022-12-18T09:49:25;34.17;;;22.63;;
64065;SDS011;50318;54.760;9.408;2022-12-18T09:51:55;33.45;;;22.52;;
64065;SDS011;50318;54.760;9.408;2022-12-18T09:54:39;33.55;;;22.08;;
64065;SDS011;50318;54.760;9.408;2022-12-18T09:57:11;35.03;;;20.98;;
64065;SDS011;50318;54.760;9.408;2022-12-18T09:59:46;33.58;;;20.42;;
64065;SDS011;50318;54.760;9.408;2022-12-18T10:02:19;32.72;;;20.33;;
64065;SDS011;50318;54.760;9.408;2022-12-18T10:05:05;29.45;;;19.98;;
64065;SDS011;50318;54.760;9.408;2022-12-18T10:07:39;29.83;;;18.92;;
64065;SDS011;50318;54.760;9.408;2022-12-18T10:27:17;23.75;;;16.27;;
64065;SDS011;50318;54.760;9.408;2022-12-18T10:29:47;25.77;;;16.90;;
64065;SDS011;50318;54.760;9.408;2022-12-18T10:32:24;27.17;;;16.48;;
64065;SDS011;50318;54.760;9.408;2022-12-18T10:34:53;26.45;;;17.20;;
64065;SDS011;50318;54.760;9.408;2022-12-18T10:37:22;24.02;;;16.33;;
64065;SDS011;50318;54.760;9.408;2022-12-18T10:40:10;21.83;;;15.45;;
64065;SDS011;50318;54.760;9.408;2022-12-18T10:42:38;23.25;;;15.18;;
64065;SDS011;50318;54.760;9.408;2022-12-18T10:47:42;23.02;;;15.20;;
64065;SDS011;50318;54.760;9.408;2022-12-18T10:50:46;22.98;;;15.55;;
64065;SDS011;50318;54.760;9.408;2022-12-18T10:53:04;20.60;;;15.55;;
64065;SDS011;50318;54.760;9.408;2022-12-18T10:55:35;21.75;;;15.02;;
64065;SDS011;50318;54.760;9.408;2022-12-18T10:58:20;21.60;;;15.27;;
64065;SDS011;50318;54.760;9.408;2022-12-18T11:03:40;21.23;;;14.57;;
64065;SDS011;50318;54.760;9.408;2022-12-18T11:06:11;25.70;;;15.48;;
64065;SDS011;50318;54.760;9.408;2022-12-18T11:08:40;23.15;;;15.82;;
64065;SDS011;50318;54.760;9.408;2022-12-18T11:11:15;23.10;;;14.95;;
64065;SDS011;50318;54.760;9.408;2022-12-18T11:16:33;22.75;;;14.77;;
64065;SDS011;50318;54.760;9.408;2022-12-18T11:19:10;21.58;;;14.38;;
64065;SDS011;50318;54.760;9.408;2022-12-18T11:21:51;19.90;;;14.55;;
64065;SDS011;50318;54.760;9.408;2022-12-18T11:24:22;23.73;;;15.93;;
64065;SDS011;50318;54.760;9.408;2022-12-18T11:26:49;23.25;;;14.93;;
64065;SDS011;50318;54.760;9.408;2022-12-18T11:29:17;24.27;;;15.73;;
64065;SDS011;50318;54.760;9.408;2022-12-18T11:31:48;23.25;;;16.92;;
64065;SDS011;50318;54.760;9.408;2022-12-18T11:36:53;21.98;;;14.73;;
64065;SDS011;50318;54.760;9.408;2022-12-18T11:42:20;22.48;;;14.82;;
64065;SDS011;50318;54.760;9.408;2022-12-18T11:53:16;20.10;;;14.25;;
64065;SDS011;50318;54.760;9.408;2022-12-18T12:00:43;21.52;;;14.32;;
64065;SDS011;50318;54.760;9.408;2022-12-18T12:03:47;22.50;;;14.27;;
64065;SDS011;50318;54.760;9.408;2022-12-18T12:20:42;20.60;;;13.32;;
64065;SDS011;50318;54.760;9.408;2022-12-18T12:23:15;21.58;;;13.88;;
64065;SDS011;50318;54.760;9.408;2022-12-18T12:25:53;22.48;;;14.73;;
64065;SDS011;50318;54.760;9.408;2022-12-18T12:28:33;21.02;;;13.88;;
64065;SDS011;50318;54.760;9.408;2022-12-18T12:39:36;22.70;;;15.02;;
64065;SDS011;50318;54.760;9.408;2022-12-18T12:42:05;20.17;;;13.47;;
64065;SDS011;50318;54.760;9.408;2022-12-18T12:44:44;20.73;;;13.82;;
64065;SDS011;50318;54.760;9.408;2022-12-18T12:49:59;16.13;;;10.27;;
64065;SDS011;50318;54.760;9.408;2022-12-18T12:52:38;22.58;;;13.05;;
64065;SDS011;50318;54.760;9.408;2022-12-18T12:55:12;21.25;;;14.05;;
64065;SDS011;50318;54.760;9.408;2022-12-18T12:58:31;18.83;;;13.20;;
64065;SDS011;50318;54.760;9.408;2022-12-18T13:00:56;21.75;;;13.68;;
64065;SDS011;50318;54.760;9.408;2022-12-18T13:03:44;19.40;;;13.05;;
64065;SDS011;50318;54.760;9.408;2022-12-18T13:08:54;21.25;;;13.93;;
64065;SDS011;50318;54.760;9.408;2022-12-18T13:11:28;19.98;;;12.90;;
64065;SDS011;50318;54.760;9.408;2022-12-18T13:13:57;18.42;;;13.02;;
64065;SDS011;50318;54.760;9.408;2022-12-18T13:16:24;19.63;;;12.77;;
64065;SDS011;50318;54.760;9.408;2022-12-18T13:18:55;18.73;;;12.82;;
64065;SDS011;50318;54.760;9.408;2022-12-18T13:21:27;22.30;;;13.10;;
64065;SDS011;50318;54.760;9.408;2022-12-18T13:26:56;19.77;;;12.40;;
64065;SDS011;50318;54.760;9.408;2022-12-18T13:32:22;19.98;;;12.48;;
64065;SDS011;50318;54.760;9.408;2022-12-18T13:37:58;21.40;;;13.85;;
64065;SDS011;50318;54.760;9.408;2022-12-18T13:43:24;20.95;;;12.77;;
64065;SDS011;50318;54.760;9.408;2022-12-18T13:48:32;21.23;;;14.05;;
64065;SDS011;50318;54.760;9.408;2022-12-18T13:51:03;21.90;;;13.63;;
64065;SDS011;50318;54.760;9.408;2022-12-18T13:53:48;21.67;;;13.55;;
64065;SDS011;50318;54.760;9.408;2022-12-18T13:56:22;22.88;;;12.90;;
64065;SDS011;50318;54.760;9.408;2022-12-18T14:04:18;20.63;;;13.35;;
64065;SDS011;50318;54.760;9.408;2022-12-18T14:06:46;18.50;;;13.02;;
64065;SDS011;50318;54.760;9.408;2022-12-18T14:09:15;20.88;;;14.15;;
64065;SDS011;50318;54.760;9.408;2022-12-18T14:11:47;21.80;;;13.25;;
64065;SDS011;50318;54.760;9.408;2022-12-18T14:14:16;22.73;;;13.32;;
64065;SDS011;50318;54.760;9.408;2022-12-18T14:16:44;19.90;;;13.30;;
64065;SDS011;50318;54.760;9.408;2022-12-18T14:19:15;20.60;;;13.48;;
64065;SDS011;50318;54.760;9.408;2022-12-18T14:21:47;19.48;;;13.50;;
64065;SDS011;50318;54.760;9.408;2022-12-18T14:26:43;21.70;;;13.48;;
64065;SDS011;50318;54.760;9.408;2022-12-18T14:29:24;19.55;;;13.70;;
64065;SDS011;50318;54.760;9.408;2022-12-18T14:32:05;19.73;;;13.65;;
64065;SDS011;50318;54.760;9.408;2022-12-18T14:34:31;18.08;;;13.23;;
64065;SDS011;50318;54.760;9.408;2022-12-18T14:36:57;18.75;;;13.40;;
64065;SDS011;50318;54.760;9.408;2022-12-18T14:39:24;21.15;;;14.07;;
64065;SDS011;50318;54.760;9.408;2022-12-18T14:41:50;20.17;;;13.38;;
64065;SDS011;50318;54.760;9.408;2022-12-18T14:44:16;21.13;;;13.43;;
64065;SDS011;50318;54.760;9.408;2022-12-18T14:46:45;21.08;;;14.40;;
64065;SDS011;50318;54.760;9.408;2022-12-18T14:52:02;23.30;;;14.00;;
64065;SDS011;50318;54.760;9.408;2022-12-18T14:54:30;22.33;;;14.05;;
64065;SDS011;50318;54.760;9.408;2022-12-18T14:57:03;23.48;;;14.25;;
64065;SDS011;50318;54.760;9.408;2022-12-18T14:59:50;24.52;;;15.77;;
64065;SDS011;50318;54.760;9.408;2022-12-18T15:05:00;25.92;;;16.98;;
64065;SDS011;50318;54.760;9.408;2022-12-18T15:07:39;27.02;;;16.42;;
64065;SDS011;50318;54.760;9.408;2022-12-18T15:12:34;24.95;;;16.38;;
64065;SDS011;50318;54.760;9.408;2022-12-18T15:18:00;24.17;;;15.68;;
64065;SDS011;50318;54.760;9.408;2022-12-18T15:20:27;26.50;;;15.60;;
64065;SDS011;50318;54.760;9.408;2022-12-18T15:22:57;24.42;;;15.60;;
64065;SDS011;50318;54.760;9.408;2022-12-18T15:27:57;28.55;;;16.63;;
64065;SDS011;50318;54.760;9.408;2022-12-18T15:30:24;26.20;;;17.15;;
64065;SDS011;50318;54.760;9.408;2022-12-18T15:32:52;26.70;;;16.45;;
64065;SDS011;50318;54.760;9.408;2022-12-18T15:36:02;26.67;;;16.80;;
64065;SDS011;50318;54.760;9.408;2022-12-18T15:38:30;27.00;;;16.67;;
64065;SDS011;50318;54.760;9.408;2022-12-18T15:40:56;26.92;;;17.08;;
64065;SDS011;50318;54.760;9.408;2022-12-18T15:43:23;27.65;;;17.65;;
64065;SDS011;50318;54.760;9.408;2022-12-18T15:45:50;24.58;;;16.85;;
64065;SDS011;50318;54.760;9.408;2022-12-18T15:48:20;26.00;;;16.30;;
64065;SDS011;50318;54.760;9.408;2022-12-18T15:50:51;30.60;;;17.77;;
64065;SDS011;50318;54.760;9.408;2022-12-18T15:53:19;28.77;;;17.45;;
64065;SDS011;50318;54.760;9.408;2022-12-18T15:55:45;31.73;;;18.05;;
64065;SDS011;50318;54.760;9.408;2022-12-18T15:58:11;28.80;;;18.27;;
64065;SDS011;50318;54.760;9.408;2022-12-18T16:00:38;28.13;;;17.13;;
64065;SDS011;50318;54.760;9.408;2022-12-18T16:03:05;29.52;;;17.90;;
64065;SDS011;50318;54.760;9.408;2022-12-18T16:05:31;28.40;;;17.50;;
64065;SDS011;50318;54.760;9.408;2022-12-18T16:07:58;28.40;;;17.35;;
64065;SDS011;50318;54.760;9.408;2022-12-18T16:10:24;25.10;;;16.77;;
64065;SDS011;50318;54.760;9.408;2022-12-18T16:12:52;27.25;;;17.42;;
64065;SDS011;50318;54.760;9.408;2022-12-18T16:15:18;27.33;;;17.02;;
64065;SDS011;50318;54.760;9.408;2022-12-18T16:17:44;26.65;;;17.25;;
64065;SDS011;50318;54.760;9.408;2022-12-18T16:20:15;29.38;;;17.58;;
64065;SDS011;50318;54.760;9.408;2022-12-18T16:22:43;29.23;;;18.15;;
64065;SDS011;50318;54.760;9.408;2022-12-18T16:25:18;26.98;;;17.35;;
64065;SDS011;50318;54.760;9.408;2022-12-18T16:27:49;28.65;;;18.25;;
64065;SDS011;50318;54.760;9.408;2022-12-18T16:30:16;26.13;;;17.20;;
64065;SDS011;50318;54.760;9.408;2022-12-18T16:32:45;28.83;;;17.58;;
64065;SDS011;50318;54.760;9.408;2022-12-18T16:35:12;27.75;;;17.63;;
64065;SDS011;50318;54.760;9.408;2022-12-18T16:37:40;27.38;;;17.17;;
64065;SDS011;50318;54.760;9.408;2022-12-18T16:40:07;28.13;;;17.92;;
64065;SDS011;50318;54.760;9.408;2022-12-18T16:42:36;28.20;;;18.05;;
64065;SDS011;50318;54.760;9.408;2022-12-18T16:45:04;27.60;;;18.02;;
64065;SDS011;50318;54.760;9.408;2022-12-18T16:47:31;33.65;;;19.70;;
64065;SDS011;50318;54.760;9.408;2022-12-18T16:49:58;29.17;;;17.98;;
64065;SDS011;50318;54.760;9.408;2022-12-18T16:52:24;27.08;;;17.00;;
64065;SDS011;50318;54.760;9.408;2022-12-18T16:54:51;29.45;;;17.52;;
64065;SDS011;50318;54.760;9.408;2022-12-18T16:57:18;23.80;;;16.35;;
64065;SDS011;50318;54.760;9.408;2022-12-18T16:59:46;25.05;;;16.38;;
64065;SDS011;50318;54.760;9.408;2022-12-18T17:02:20;26.88;;;16.48;;
64065;SDS011;50318;54.760;9.408;2022-12-18T17:04:47;26.90;;;16.58;;
64065;SDS011;50318;54.760;9.408;2022-12-18T17:07:14;26.45;;;16.02;;
64065;SDS011;50318;54.760;9.408;2022-12-18T17:09:41;26.38;;;16.77;;